Time;durP1;ratioP1;P1;durP2;ratioP2;P2;SDS_P1;SDS_P2;PMS_P1;PMS_P2;Temp;Humidity;BMP_temperature;BMP_pressure;BME280_temperature;BME280_humidity;BME280_pressure;Samples;Min_cycle;Max_cycle;Signal;HPM_P1;HPM_P2
2022/06/05 00:03:48;;;;;;;5.88;4.80;;;;;;;18.47;54.21;100009.22;10436082;28;20134;-78
2022/06/05 00:08:59;;;;;;;5.40;4.53;;;;;;;18.54;53.80;100017.44;10436529;28;20053;-78
2022/06/05 00:14:01;;;;;;;6.15;4.47;;;;;;;18.47;53.84;100037.50;10427886;28;20144;-78
2022/06/05 00:19:03;;;;;;;6.00;4.85;;;;;;;18.46;54.34;100059.69;10433715;28;20130;-78
2022/06/05 00:24:05;;;;;;;12.10;5.25;;;;;;;18.20;54.51;100061.19;10432495;28;20142;-77
2022/06/05 00:29:06;;;;;;;5.35;4.85;;;;;;;18.18;54.73;100078.97;10431993;28;20513;-78
2022/06/05 00:34:08;;;;;;;5.78;4.68;;;;;;;18.14;54.85;100074.91;10433088;28;20064;-78
2022/06/05 00:39:17;;;;;;;6.47;4.70;;;;;;;18.06;54.82;100070.28;10431971;28;20140;-78
2022/06/05 00:44:25;;;;;;;7.40;5.22;;;;;;;17.74;55.66;100053.78;10434411;28;20063;-78
2022/06/05 00:49:45;;;;;;;5.53;4.93;;;;;;;17.34;57.42;100035.25;10440405;28;20060;-78
2022/06/05 00:54:47;;;;;;;6.32;5.00;;;;;;;17.25;56.96;100048.38;10454396;28;20660;-77
2022/06/05 00:59:50;;;;;;;6.70;5.50;;;;;;;17.42;57.04;100053.94;10440075;28;20094;-78
2022/06/05 01:04:52;;;;;;;5.30;4.75;;;;;;;17.58;56.60;100056.94;10439031;28;20075;-78
2022/06/05 01:09:54;;;;;;;5.82;5.18;;;;;;;17.50;56.33;100040.88;10436332;28;20045;-78
2022/06/05 01:15:11;;;;;;;6.78;5.63;;;;;;;17.12;57.33;100039.81;10430596;28;20462;-78
2022/06/05 01:20:32;;;;;;;6.53;5.65;;;;;;;17.04;57.83;100024.59;10432147;28;20529;-78
2022/06/05 01:25:33;;;;;;;;;;;;;;;16.94;57.60;100013.97;10432506;28;20106;-78
2022/06/05 01:30:47;;;;;;;7.03;5.45;;;;;;;17.18;57.62;100012.88;10432843;28;20130;-78
2022/06/05 01:36:02;;;;;;;9.68;6.47;;;;;;;17.01;57.45;100011.66;10431904;28;20060;-77
2022/06/05 01:41:29;;;;;;;8.45;6.60;;;;;;;16.75;57.80;99999.81;10430532;28;20187;-78
2022/06/05 01:46:37;;;;;;;7.72;5.97;;;;;;;16.85;57.80;99984.88;10429637;28;20177;-78
2022/06/05 01:52:13;;;;;;;6.68;4.97;;;;;;;16.82;57.89;99980.69;10429515;28;20053;-78
2022/06/05 01:57:18;;;;;;;9.20;6.22;;;;;;;16.88;57.58;99964.31;10446029;28;20106;-77
2022/06/05 02:02:27;;;;;;;7.28;6.15;;;;;;;16.69;58.55;99943.06;10448350;28;20064;-78
2022/06/05 02:07:44;;;;;;;7.20;6.13;;;;;;;16.67;58.67;99920.41;10437376;28;20560;-78
2022/06/05 02:12:46;;;;;;;7.65;6.20;;;;;;;16.57;59.00;99890.47;10437116;28;20048;-77
2022/06/05 02:17:50;;;;;;;6.72;5.93;;;;;;;16.58;58.97;99861.28;10436274;28;20053;-78
2022/06/05 02:22:52;;;;;;;7.32;6.07;;;;;;;16.74;58.75;99840.50;10438403;28;20106;-78
2022/06/05 02:27:59;;;;;;;7.38;5.78;;;;;;;16.84;58.64;99822.91;10435117;28;20053;-78
2022/06/05 02:33:11;;;;;;;6.82;6.15;;;;;;;16.88;58.63;99807.59;10431755;28;20084;-78
2022/06/05 02:38:21;;;;;;;7.53;5.93;;;;;;;16.82;58.47;99801.06;10435980;28;20148;-77
2022/06/05 02:43:44;;;;;;;8.50;6.28;;;;;;;16.83;58.70;99796.63;10437140;28;20081;-78
2022/06/05 02:49:03;;;;;;;7.03;6.32;;;;;;;16.75;58.76;99781.44;10435746;28;20053;-77
2022/06/05 02:54:05;;;;;;;10.50;5.88;;;;;;;16.70;58.31;99765.16;10435024;28;20475;-78
2022/06/05 02:59:06;;;;;;;6.70;5.78;;;;;;;16.54;58.90;99756.91;10439449;28;20073;-77
2022/06/05 03:04:08;;;;;;;8.85;5.75;;;;;;;16.56;58.46;99756.78;10448115;28;20044;-78
2022/06/05 03:09:10;;;;;;;6.38;5.57;;;;;;;16.65;58.32;99758.63;10443595;28;20053;-78
2022/06/05 03:14:14;;;;;;;6.53;5.03;;;;;;;16.77;58.02;99768.13;10444170;28;20934;-78
2022/06/05 03:19:16;;;;;;;7.13;4.72;;;;;;;16.84;58.01;99761.31;10439500;28;20072;-78
2022/06/05 03:24:17;;;;;;;7.20;5.20;;;;;;;16.79;58.14;99748.50;10440086;28;20502;-78
2022/06/05 03:29:20;;;;;;;6.22;5.05;;;;;;;16.77;58.38;99747.78;10436923;28;20076;-78
2022/06/05 03:34:22;;;;;;;6.57;5.10;;;;;;;16.61;58.35;99754.59;10439050;28;20053;-77
2022/06/05 03:39:24;;;;;;;9.68;5.65;;;;;;;16.63;58.28;99760.56;10437384;28;20172;-78
2022/06/05 03:44:27;;;;;;;7.97;5.72;;;;;;;16.68;58.05;99776.81;10436402;28;20060;-78
2022/06/05 03:49:28;;;;;;;6.78;4.97;;;;;;;16.91;57.58;99788.88;10433798;28;20092;-78
2022/06/05 03:54:31;;;;;;;6.25;4.78;;;;;;;17.23;57.12;99800.06;10434566;28;20084;-78
2022/06/05 03:59:35;;;;;;;7.13;4.80;;;;;;;17.39;56.58;99807.47;10433446;28;20518;-78
2022/06/05 04:04:37;;;;;;;9.60;5.00;;;;;;;17.45;56.29;99814.84;10433660;28;20049;-78
2022/06/05 04:09:38;;;;;;;5.75;4.82;;;;;;;17.48;56.30;99826.00;10434482;28;20120;-78
2022/06/05 04:14:40;;;;;;;6.45;4.63;;;;;;;17.85;55.24;99824.31;10435145;28;20052;-78
2022/06/05 04:19:42;;;;;;;5.82;4.03;;;;;;;18.84;53.10;99817.69;10435147;28;20088;-78
2022/06/05 04:24:44;;;;;;;7.88;4.70;;;;;;;18.79;52.92;99849.09;10436064;28;20060;-78
2022/06/05 04:29:46;;;;;;;5.70;4.03;;;;;;;18.51;53.76;99857.00;10433000;28;20506;-78
2022/06/05 04:34:50;;;;;;;6.88;4.20;;;;;;;18.48;53.84;99859.09;10435267;28;20053;-78
2022/06/05 04:39:58;;;;;;;5.82;4.40;;;;;;;18.41;53.99;99858.81;10435322;28;20067;-78
2022/06/05 04:45:00;;;;;;;6.65;4.18;;;;;;;18.48;53.85;99880.28;10434257;28;20048;-78
2022/06/05 04:50:02;;;;;;;9.68;4.80;;;;;;;18.48;53.74;99893.53;10434050;28;20089;-77
2022/06/05 04:55:04;;;;;;;6.28;4.88;;;;;;;18.39;53.99;99892.56;10434759;28;20102;-78
2022/06/05 05:00:07;;;;;;;7.25;4.70;;;;;;;18.39;53.90;99889.06;10434804;28;20088;-78
2022/06/05 05:05:34;;;;;;;6.30;4.40;;;;;;;18.29;54.70;99901.50;10435544;28;20057;-78
2022/06/05 05:10:36;;;;;;;7.03;4.70;;;;;;;18.29;54.41;99890.91;10429682;28;20170;-78
2022/06/05 05:15:37;;;;;;;5.25;4.50;;;;;;;17.99;55.20;99868.06;10432814;28;20430;-78
2022/06/05 05:20:42;;;;;;;7.18;4.50;;;;;;;18.05;54.56;99856.91;10431634;28;20481;-78
2022/06/05 05:25:43;;;;;;;6.50;4.57;;;;;;;18.19;54.71;99858.28;10432404;28;20056;-78
2022/06/05 05:30:45;;;;;;;5.95;4.57;;;;;;;18.24;54.67;99850.78;10431978;28;20080;-78
2022/06/05 05:35:47;;;;;;;6.47;4.88;;;;;;;18.26;54.90;99846.19;10431230;28;20061;-78
2022/06/05 05:46:11;;;;;;;9.23;4.97;;;;;;;17.92;55.79;99821.94;10428096;28;20057;-78
2022/06/05 05:51:14;;;;;;;9.05;5.18;;;;;;;17.87;54.98;99810.97;10424081;28;20383;-78
2022/06/05 05:56:16;;;;;;;6.85;5.15;;;;;;;17.93;55.23;99813.06;10428350;28;20069;-78
2022/06/05 06:01:18;;;;;;;8.18;5.30;;;;;;;18.14;54.99;99789.88;10425009;28;20131;-78
2022/06/05 06:06:28;;;;;;;6.72;5.10;;;;;;;18.09;54.86;99772.75;10427235;28;20060;-78
2022/06/05 06:11:29;;;;;;;10.65;5.38;;;;;;;18.17;54.89;99757.00;10425564;28;20169;-78
2022/06/05 06:16:32;;;;;;;7.13;5.15;;;;;;;18.35;54.63;99758.78;10426282;28;20053;-78
2022/06/05 06:21:34;;;;;;;5.70;4.78;;;;;;;18.55;55.08;99741.00;10424146;28;20071;-78
2022/06/05 06:26:43;;;;;;;7.05;5.15;;;;;;;18.75;54.69;99733.78;10424634;28;20055;-79
2022/06/05 06:31:45;;;;;;;6.13;5.38;;;;;;;18.94;55.05;99725.72;10421903;28;20267;-78
2022/06/05 06:36:48;;;;;;;6.22;4.97;;;;;;;18.98;55.66;99709.38;10431166;28;20155;-78
2022/06/05 06:41:52;;;;;;;8.07;5.50;;;;;;;19.12;54.91;99698.28;10433220;28;20127;-78
2022/06/05 06:46:53;;;;;;;7.28;5.18;;;;;;;18.97;55.00;99667.94;10432611;28;20058;-78
2022/06/05 06:51:56;;;;;;;7.07;5.80;;;;;;;18.92;55.74;99654.31;10431476;28;20057;-78
2022/06/05 06:56:58;;;;;;;6.30;5.45;;;;;;;19.13;55.67;99656.69;10434275;28;20190;-78
2022/06/05 07:02:01;;;;;;;9.43;6.25;;;;;;;19.65;56.53;99666.38;10431354;28;20160;-78
2022/06/05 07:07:05;;;;;;;7.45;5.78;;;;;;;20.39;54.74;99669.31;10432143;28;20103;-78
2022/06/05 07:12:08;;;;;;;7.57;6.15;;;;;;;20.75;53.71;99667.28;10432098;28;20120;-78
2022/06/05 07:17:10;;;;;;;6.95;5.40;;;;;;;21.01;52.67;99644.88;10433389;28;20140;-78
2022/06/05 07:22:12;;;;;;;9.15;5.43;;;;;;;21.81;50.88;99624.56;10429782;28;20048;-78
2022/06/05 07:27:14;;;;;;;6.90;5.60;;;;;;;22.51;50.57;99642.31;10432696;28;20577;-78
2022/06/05 07:32:16;;;;;;;7.75;5.43;;;;;;;22.66;49.27;99653.03;10431537;28;20115;-78
2022/06/05 07:37:18;;;;;;;9.73;5.13;;;;;;;23.38;47.63;99670.41;10431144;28;20061;-78
2022/06/05 07:42:19;;;;;;;6.82;5.53;;;;;;;23.51;47.37;99665.34;10427980;28;20076;-79
2022/06/05 07:47:21;;;;;;;6.40;5.22;;;;;;;23.45;47.19;99663.38;10432113;28;20473;-80
2022/06/05 07:57:45;;;;;;;6.05;4.85;;;;;;;22.96;47.85;99670.91;10431633;28;20131;-79
2022/06/05 08:02:48;;;;;;;6.03;4.80;;;;;;;22.37;49.17;99677.66;10430589;28;20490;-79
2022/06/05 08:07:49;;;;;;;6.60;5.13;;;;;;;21.73;49.99;99678.66;10437170;28;20160;-79
2022/06/05 08:12:52;;;;;;;6.20;5.25;;;;;;;21.48;50.62;99684.16;10433165;28;20049;-79
2022/06/05 08:17:54;;;;;;;7.25;5.60;;;;;;;21.19;50.50;99691.78;10431849;28;20561;-79
2022/06/05 08:22:56;;;;;;;6.15;5.55;;;;;;;20.99;52.28;99696.56;10433048;28;20134;-79
2022/06/05 08:27:58;;;;;;;7.47;5.63;;;;;;;20.72;53.50;99702.16;10432393;28;20057;-79
2022/06/05 08:33:00;;;;;;;6.55;5.65;;;;;;;20.36;54.00;99698.03;10431732;28;20086;-78
2022/06/05 08:43:39;;;;;;;;;;;;;;;19.78;55.37;99709.28;10432841;28;20379;-79
2022/06/05 08:48:52;;;;;;;6.55;5.20;;;;;;;20.17;55.25;99709.72;10432000;28;19921;-79
2022/06/05 08:54:00;;;;;;;7.85;5.82;;;;;;;20.23;54.73;99712.53;10427349;28;20454;-79
2022/06/05 08:59:13;;;;;;;9.95;6.28;;;;;;;20.15;56.37;99704.53;10436078;28;20131;-80
2022/06/05 09:04:40;;;;;;;8.82;6.15;;;;;;;20.26;56.39;99698.97;10439364;28;20461;-80
2022/06/05 09:09:57;;;;;;;9.55;6.35;;;;;;;20.47;55.00;99695.06;10413350;28;20106;-80
2022/06/05 09:15:18;;;;;;;7.97;6.47;;;;;;;20.61;55.56;99697.97;10432366;28;20560;-80
2022/06/05 09:20:30;;;;;;;7.15;6.07;;;;;;;20.64;54.19;99705.59;10417856;28;20049;-80
2022/06/05 09:25:43;;;;;;;7.57;6.18;;;;;;;20.69;54.55;99710.44;10422188;28;20140;-80
2022/06/05 09:31:10;;;;;;;7.95;6.40;;;;;;;20.53;54.29;99699.72;10431718;28;20041;-79
2022/06/05 09:36:21;;;;;;;10.10;6.63;;;;;;;20.59;55.72;99688.50;10432827;28;20230;-79
2022/06/05 09:41:50;;;;;;;9.15;6.63;;;;;;;20.80;55.25;99687.06;10439139;28;20083;-80
2022/06/05 09:46:59;;;;;;;8.75;7.05;;;;;;;20.84;55.04;99669.81;10441616;28;20080;-79
2022/06/05 09:52:22;;;;;;;8.88;7.10;;;;;;;20.87;55.90;99664.16;10424630;28;20099;-78
2022/06/05 10:03:00;;;;;;;9.13;6.72;;;;;;;21.09;55.41;99638.75;10417373;28;20072;-79
2022/06/05 10:08:23;;;;;;;8.60;7.30;;;;;;;21.02;54.40;99633.28;10429789;28;20114;-79
2022/06/05 10:13:50;;;;;;;7.95;6.80;;;;;;;21.03;54.83;99628.75;10433769;28;20141;-80
2022/06/05 10:19:15;;;;;;;9.63;7.45;;;;;;;21.16;55.06;99618.47;10445444;28;20044;-79
2022/06/05 10:24:20;;;;;;;8.05;6.53;;;;;;;21.14;53.33;99616.97;10432111;28;20138;-79
2022/06/05 10:35:53;;;;;;;7.72;6.30;;;;;;;21.34;53.22;99613.00;10382314;28;20040;-79
2022/06/05 10:41:03;;;;;;;7.47;6.47;;;;;;;21.57;51.94;99598.00;10424374;28;20103;-79
2022/06/05 10:46:20;;;;;;;6.88;5.80;;;;;;;21.69;52.66;99588.66;10425174;28;20475;-80
2022/06/05 10:51:32;;;;;;;8.07;5.80;;;;;;;22.08;51.71;99586.06;10420111;28;20503;-79
2022/06/05 10:56:51;;;;;;;8.38;5.80;;;;;;;21.40;51.22;99559.97;10414865;28;20565;-79
2022/06/05 11:02:01;;;;;;;6.93;5.72;;;;;;;21.36;52.10;99552.47;10420403;28;20041;-79
2022/06/05 11:07:14;;;;;;;9.07;6.40;;;;;;;22.21;50.23;99549.84;10431305;28;20076;-79
2022/06/05 11:18:50;;;;;;;7.88;5.93;;;;;;;22.18;50.37;99541.41;10426335;28;20110;-80
2022/06/05 11:23:57;;;;;;;6.75;5.53;;;;;;;22.12;50.94;99550.94;10431011;28;21168;-79
2022/06/05 11:29:25;;;;;;;6.43;5.55;;;;;;;21.94;51.14;99546.81;10430006;28;20053;-80
2022/06/05 11:34:57;;;;;;;6.50;5.65;;;;;;;22.57;50.65;99545.66;10433727;28;20916;-79
2022/06/05 11:46:37;;;;;;;7.13;5.57;;;;;;;22.75;49.32;99528.53;10425701;28;20072;-78
2022/06/05 11:51:58;;;;;;;8.25;5.35;;;;;;;22.77;50.04;99522.03;10430210;28;20132;-79
2022/06/05 11:57:21;;;;;;;8.18;5.40;;;;;;;22.79;49.96;99516.53;10432653;28;20103;-79
2022/06/05 12:02:38;;;;;;;6.80;5.40;;;;;;;22.77;50.11;99526.53;10432072;28;20406;-79
2022/06/05 12:07:41;;;;;;;6.05;5.30;;;;;;;22.59;50.56;99516.16;10433136;28;20052;-79
2022/06/05 12:12:56;;;;;;;7.63;5.60;;;;;;;22.55;50.65;99522.84;10426538;28;20053;-80
2022/06/05 12:18:14;;;;;;;7.80;5.25;;;;;;;22.50;50.80;99511.88;10427101;28;20762;-79
2022/06/05 12:23:41;;;;;;;6.10;5.00;;;;;;;22.28;50.85;99518.88;10434628;28;20511;-80
2022/06/05 12:28:49;;;;;;;5.95;5.03;;;;;;;22.39;52.08;99517.63;10428752;28;20144;-80
2022/06/05 12:34:11;;;;;;;7.68;5.70;;;;;;;22.25;52.17;99513.06;10430390;28;20902;-80
2022/06/05 12:39:27;;;;;;;6.55;5.25;;;;;;;22.11;52.90;99514.63;10432927;28;20061;-78
2022/06/05 12:44:41;;;;;;;6.47;5.28;;;;;;;22.17;52.55;99510.47;10428262;28;20081;-79
2022/06/05 12:49:49;;;;;;;7.68;5.65;;;;;;;22.03;52.44;99513.81;10424908;28;20136;-78
2022/06/05 12:55:03;;;;;;;11.23;5.72;;;;;;;22.06;52.42;99513.50;10425898;28;20115;-79
2022/06/05 13:00:36;;;;;;;9.68;5.50;;;;;;;22.01;53.00;99513.16;10423908;28;20045;-79
2022/06/05 13:05:50;;;;;;;6.30;5.15;;;;;;;22.18;53.27;99504.94;10431283;28;20707;-79
2022/06/05 13:11:20;;;;;;;6.28;5.53;;;;;;;22.41;51.66;99508.44;10441780;28;20619;-79
2022/06/05 13:16:49;;;;;;;6.78;5.25;;;;;;;22.49;51.81;99491.56;10448326;28;20142;-79
2022/06/05 13:22:11;;;;;;;5.85;5.18;;;;;;;22.63;52.16;99488.97;10432107;28;20052;-79
2022/06/05 13:27:39;;;;;;;7.43;5.53;;;;;;;22.82;52.32;99484.97;10432069;28;20111;-80
2022/06/05 13:33:07;;;;;;;7.53;5.47;;;;;;;23.28;51.48;99478.53;10430685;28;20092;-80
2022/06/05 13:38:09;;;;;;;5.78;5.20;;;;;;;24.26;49.32;99471.81;10430656;28;20056;-79
2022/06/05 13:43:25;;;;;;;6.85;5.20;;;;;;;24.71;47.49;99462.59;10428584;28;20142;-80
2022/06/05 13:48:47;;;;;;;10.02;5.32;;;;;;;24.65;46.99;99466.00;10429949;28;20061;-79
2022/06/05 13:54:14;;;;;;;6.43;5.30;;;;;;;24.08;47.83;99468.72;10430390;28;20604;-79
2022/06/05 14:00:12;;;;;;;7.53;5.50;;;;;;;23.52;49.84;99480.13;10428452;28;20526;-79
2022/06/05 14:05:21;;;;;;;8.02;6.00;;;;;;;23.21;50.42;99482.09;10354596;28;20060;-79
2022/06/05 14:10:30;;;;;;;12.10;7.25;;;;;;;22.93;53.78;99481.06;10429442;28;20128;-80
2022/06/05 14:15:49;;;;;;;12.73;9.20;;;;;;;22.63;56.44;99474.81;10429195;28;20177;-80
2022/06/05 14:20:52;;;;;;;10.85;8.40;;;;;;;22.99;55.60;99459.84;10426124;28;20045;-80
2022/06/05 14:26:01;;;;;;;11.43;9.70;;;;;;;23.39;56.39;99467.38;10430651;28;20303;-80
2022/06/05 14:31:16;;;;;;;10.38;8.85;;;;;;;23.67;56.08;99453.41;10428355;28;20111;-80
2022/06/05 14:36:44;;;;;;;12.45;9.68;;;;;;;23.64;55.90;99435.91;10430451;28;20142;-79
2022/06/05 14:41:57;;;;;;;11.02;9.48;;;;;;;23.92;56.57;99438.72;10431195;28;20114;-79
2022/06/05 14:47:11;;;;;;;10.70;9.43;;;;;;;24.02;55.54;99452.59;10429189;28;20061;-79
2022/06/05 14:52:28;;;;;;;12.70;10.57;;;;;;;23.82;56.04;99459.56;10428420;28;20073;-79
2022/06/05 14:57:52;;;;;;;11.15;9.98;;;;;;;23.60;57.32;99464.00;10436735;28;20059;-79
2022/06/05 15:03:24;;;;;;;10.90;9.80;;;;;;;23.26;57.01;99467.22;10431249;28;20525;-79
2022/06/05 15:08:41;;;;;;;13.10;11.73;;;;;;;23.18;58.54;99461.97;10436251;28;20077;-79
2022/06/05 15:13:56;;;;;;;13.20;11.90;;;;;;;23.04;59.61;99467.28;10437067;28;20469;-80
2022/06/05 15:19:00;;;;;;;12.00;10.85;;;;;;;23.08;59.64;99472.09;10437320;28;20053;-80
2022/06/05 15:24:11;;;;;;;12.30;11.05;;;;;;;23.48;59.64;99471.66;10453722;28;20912;-79
2022/06/05 15:29:43;;;;;;;9.70;8.60;;;;;;;23.01;57.47;99472.97;10435727;28;20060;-79
2022/06/05 15:34:53;;;;;;;10.32;9.32;;;;;;;22.63;58.59;99478.31;10392319;28;20582;-80
2022/06/05 15:40:16;;;;;;;9.90;9.00;;;;;;;22.48;59.29;99485.41;10432234;28;20485;-81
2022/06/05 15:45:48;;;;;;;9.90;8.90;;;;;;;22.46;59.11;99486.59;10431620;28;20136;-82
2022/06/05 15:51:15;;;;;;;8.80;7.63;;;;;;;22.20;59.32;99497.59;10436705;28;20053;-81
2022/06/05 15:56:34;;;;;;;7.80;7.00;;;;;;;22.33;59.04;99497.03;10422020;28;20513;-80
2022/06/05 16:01:43;;;;;;;7.60;6.75;;;;;;;22.25;58.75;99505.88;10416490;28;20276;-80
2022/06/05 16:07:00;;;;;;;8.65;6.60;;;;;;;22.27;58.62;99513.72;10417766;28;20060;-80
2022/06/05 16:12:11;;;;;;;7.05;6.35;;;;;;;22.22;58.39;99506.25;10419858;28;20072;-80
2022/06/05 16:17:19;;;;;;;8.00;6.18;;;;;;;22.16;58.63;99511.44;10422395;28;20084;-80
2022/06/05 16:22:44;;;;;;;7.28;5.97;;;;;;;21.85;59.31;99514.91;10419265;28;20060;-80
2022/06/05 16:27:55;;;;;;;7.28;5.70;;;;;;;21.57;60.02;99519.00;10418428;28;20064;-81
2022/06/05 16:32:57;;;;;;;6.28;4.18;;;;;;;21.02;60.13;99521.59;10417510;28;20068;-81
2022/06/05 16:38:00;;;;;;;4.88;2.92;;;;;;;20.84;60.38;99501.50;10422902;28;20085;-81
2022/06/05 16:43:17;;;;;;;6.00;2.50;;;;;;;20.75;59.35;99498.03;10438324;28;20482;-80
2022/06/05 16:48:24;;;;;;;4.28;2.70;;;;;;;20.67;59.65;99484.75;10422443;28;20061;-80
2022/06/05 16:53:36;;;;;;;5.90;2.10;;;;;;;20.64;58.97;99471.78;10410009;28;20138;-80
2022/06/05 16:58:42;;;;;;;6.50;2.03;;;;;;;20.80;59.03;99453.19;10430114;28;20568;-80
2022/06/05 17:04:03;;;;;;;2.33;1.70;;;;;;;20.86;57.93;99464.97;10421280;28;20048;-80
2022/06/05 17:09:18;;;;;;;5.72;1.90;;;;;;;20.79;58.25;99462.13;10421825;28;20056;-81
2022/06/05 17:14:30;;;;;;;4.38;1.63;;;;;;;20.70;58.16;99443.72;10418313;28;20063;-81
2022/06/05 17:19:42;;;;;;;5.72;2.33;;;;;;;20.74;58.61;99453.00;10417144;28;20145;-80
2022/06/05 17:25:11;;;;;;;3.65;1.42;;;;;;;20.82;58.34;99460.97;10419159;28;20124;-80
2022/06/05 17:30:19;;;;;;;2.97;1.63;;;;;;;20.68;58.58;99490.88;10422919;28;20044;-81
2022/06/05 17:35:40;;;;;;;3.75;1.80;;;;;;;20.52;58.78;99520.88;10416851;28;20502;-81
2022/06/05 17:41:25;;;;;;;3.42;1.60;;;;;;;20.33;59.24;99539.81;10420701;28;20041;-81
2022/06/05 17:46:46;;;;;;;3.85;1.58;;;;;;;20.41;59.45;99547.78;10422292;28;20134;-81
2022/06/05 17:51:57;;;;;;;2.95;1.40;;;;;;;20.41;59.60;99550.44;10379473;28;20045;-81
2022/06/05 17:57:08;;;;;;;4.40;1.70;;;;;;;20.09;59.21;99563.66;10390506;28;20064;-81
2022/06/05 18:02:27;;;;;;;3.28;1.38;;;;;;;19.77;59.83;99579.38;10389593;28;20541;-81
2022/06/05 18:07:40;;;;;;;1.45;1.20;;;;;;;19.69;59.73;99577.53;10388670;28;20065;-81
2022/06/05 18:12:48;;;;;;;6.95;1.50;;;;;;;19.86;59.29;99581.97;10386492;28;20131;-81
2022/06/05 18:17:59;;;;;;;5.78;1.50;;;;;;;19.97;59.25;99554.31;10386842;28;20494;-81
2022/06/05 18:23:03;;;;;;;1.95;1.30;;;;;;;20.00;59.40;99564.59;10388608;28;20107;-80
2022/06/05 18:28:22;;;;;;;1.90;1.25;;;;;;;19.83;59.14;99557.53;10387504;28;20099;-81
2022/06/05 18:33:28;;;;;;;5.75;1.58;;;;;;;19.61;59.58;99564.22;10388086;28;20041;-81
2022/06/05 18:38:39;;;;;;;3.50;1.60;;;;;;;19.47;59.95;99562.16;10414397;28;20218;-81
2022/06/05 18:43:44;;;;;;;1.88;1.25;;;;;;;19.36;59.46;99552.63;10416072;28;20748;-80
2022/06/05 18:48:48;;;;;;;3.83;1.50;;;;;;;19.15;60.09;99564.59;10444651;28;20138;-80
2022/06/05 18:53:54;;;;;;;2.40;1.40;;;;;;;19.00;60.28;99577.53;10467491;28;20122;-80
2022/06/05 18:59:20;;;;;;;4.78;1.50;;;;;;;18.80;60.80;99572.56;10468759;28;20128;-80
2022/06/05 19:04:23;;;;;;;2.75;1.38;;;;;;;18.70;60.59;99579.75;10462869;28;20060;-80
2022/06/05 19:09:29;;;;;;;3.50;1.58;;;;;;;18.46;61.37;99581.16;10465251;28;20110;-80
2022/06/05 19:15:00;;;;;;;2.92;1.60;;;;;;;18.28;61.83;99598.03;10469122;28;20821;-81
2022/06/05 19:20:11;;;;;;;3.22;1.60;;;;;;;18.09;62.49;99620.09;10467609;28;20045;-80
2022/06/05 19:25:22;;;;;;;3.50;1.60;;;;;;;18.01;62.56;99624.47;10457943;28;20049;-81
2022/06/05 19:30:36;;;;;;;1.95;1.48;;;;;;;17.96;62.99;99629.34;10466552;28;20049;-80
2022/06/05 19:41:09;;;;;;;4.25;1.63;;;;;;;18.19;62.37;99665.03;10439748;28;20041;-80
2022/06/05 19:46:17;;;;;;;4.13;1.70;;;;;;;18.17;62.07;99682.88;10440431;28;20048;-80
2022/06/05 19:51:30;;;;;;;2.20;1.50;;;;;;;18.08;62.62;99694.31;10440218;28;20510;-80
2022/06/05 19:57:16;;;;;;;2.05;1.45;;;;;;;18.09;62.75;99707.44;10440743;28;20052;-79
2022/06/05 20:02:20;;;;;;;3.25;1.60;;;;;;;18.14;62.56;99725.50;10451711;28;20075;-79
2022/06/05 20:07:39;;;;;;;2.63;1.48;;;;;;;18.08;62.71;99731.38;10436274;28;20115;-79
2022/06/05 20:12:50;;;;;;;5.25;1.80;;;;;;;18.10;62.36;99726.78;10436797;28;20142;-79
2022/06/05 20:17:57;;;;;;;3.45;1.60;;;;;;;18.11;62.08;99739.88;10448264;28;20048;-79
2022/06/05 20:23:27;;;;;;;2.50;1.50;;;;;;;18.12;62.63;99761.88;10435930;28;20056;-79
2022/06/05 20:29:04;;;;;;;2.88;1.50;;;;;;;18.12;62.62;99769.81;10449629;28;20437;-81
2022/06/05 20:34:13;;;;;;;3.22;1.50;;;;;;;18.14;62.03;99783.75;10412838;28;20065;-81
2022/06/05 20:39:34;;;;;;;3.42;1.30;;;;;;;18.14;62.60;99781.09;10435352;28;20408;-80
2022/06/05 20:44:44;;;;;;;4.03;1.40;;;;;;;18.31;61.96;99781.22;10438562;28;20456;-80
2022/06/05 20:50:04;;;;;;;2.85;1.38;;;;;;;18.39;61.76;99780.50;10437414;28;20103;-81
2022/06/05 20:55:09;;;;;;;4.57;1.60;;;;;;;18.35;61.85;99776.47;10434236;28;20098;-81
2022/06/05 21:00:18;;;;;;;2.60;1.55;;;;;;;18.32;61.99;99784.72;10437755;28;20186;-79
2022/06/05 21:21:35;;;;;;;3.25;1.40;;;;;;;18.13;61.69;99798.81;10436285;28;20517;-80
2022/06/05 21:26:37;;;;;;;4.90;1.63;;;;;;;18.08;61.84;99813.41;10435276;28;20080;-80
2022/06/05 21:31:53;;;;;;;5.63;1.40;;;;;;;17.94;62.27;99821.81;10434447;28;20475;-80
2022/06/05 21:36:56;;;;;;;4.97;1.50;;;;;;;17.96;62.24;99809.25;10435810;28;20110;-80
2022/06/05 21:42:04;;;;;;;5.30;1.90;;;;;;;17.96;62.35;99815.41;10434755;28;20060;-80
2022/06/05 21:47:16;;;;;;;7.03;1.73;;;;;;;18.01;62.00;99818.47;10434455;28;20596;-80
2022/06/05 21:52:25;;;;;;;5.38;2.00;;;;;;;18.06;61.99;99818.03;10434336;28;20081;-80
2022/06/05 21:57:33;;;;;;;3.63;1.73;;;;;;;18.12;61.88;99825.41;10447803;28;20107;-80
2022/06/05 22:02:36;;;;;;;4.18;1.55;;;;;;;18.13;62.01;99829.72;10436570;28;20092;-80
2022/06/05 22:07:38;;;;;;;9.63;2.58;;;;;;;18.14;61.76;99826.94;10434732;28;20100;-80
2022/06/05 22:12:39;;;;;;;7.15;1.88;;;;;;;17.97;61.69;99821.53;10432351;28;20450;-80
2022/06/05 22:17:41;;;;;;;3.55;1.83;;;;;;;17.88;61.81;99822.38;10432404;28;20060;-79
2022/06/05 22:22:43;;;;;;;7.90;1.92;;;;;;;17.80;61.75;99815.97;10431823;28;20099;-79
2022/06/05 22:27:46;;;;;;;3.83;1.70;;;;;;;17.71;62.21;99806.22;10430231;28;20540;-79
2022/06/05 22:32:48;;;;;;;4.05;1.85;;;;;;;17.78;61.96;99825.88;10431381;28;20537;-79
2022/06/05 22:37:50;;;;;;;8.68;1.98;;;;;;;17.74;62.19;99813.91;10433986;28;20095;-79
2022/06/05 22:42:51;;;;;;;3.45;1.95;;;;;;;17.68;61.81;99808.31;10435509;28;20128;-79
2022/06/05 22:47:53;;;;;;;4.32;2.03;;;;;;;17.57;61.90;99792.56;10431653;28;20103;-79
2022/06/05 22:52:55;;;;;;;5.95;1.95;;;;;;;17.45;62.71;99798.97;10432267;28;20103;-79
2022/06/05 22:57:57;;;;;;;4.75;2.03;;;;;;;17.22;62.73;99793.06;10423818;28;20518;-80
2022/06/05 23:02:59;;;;;;;6.22;2.10;;;;;;;17.08;63.03;99790.03;10423051;28;20134;-79
2022/06/05 23:08:01;;;;;;;4.07;2.10;;;;;;;16.99;63.29;99791.66;10423299;28;20057;-80
2022/06/05 23:13:02;;;;;;;4.88;2.03;;;;;;;16.97;63.00;99791.81;10427847;28;20100;-79
2022/06/05 23:18:05;;;;;;;5.93;2.10;;;;;;;16.94;63.28;99796.50;10436445;28;20052;-79
2022/06/05 23:23:07;;;;;;;5.43;2.47;;;;;;;16.92;63.26;99790.50;10432489;28;20051;-79
2022/06/05 23:28:10;;;;;;;7.28;2.33;;;;;;;16.88;63.42;99799.69;10431642;28;20146;-79
2022/06/05 23:33:13;;;;;;;3.40;2.20;;;;;;;16.81;63.65;99799.38;10430572;28;20543;-79
2022/06/05 23:38:14;;;;;;;5.30;2.50;;;;;;;16.69;63.78;99795.16;10427233;28;20668;-79
2022/06/05 23:43:16;;;;;;;4.43;2.70;;;;;;;16.65;63.86;99799.03;10444726;28;20407;-79
2022/06/05 23:48:18;;;;;;;4.95;2.65;;;;;;;16.77;63.89;99787.41;10436535;28;20061;-79
2022/06/05 23:53:20;;;;;;;5.35;2.53;;;;;;;16.77;63.70;99779.47;10426346;28;20069;-80
2022/06/05 23:58:22;;;;;;;5.53;2.72;;;;;;;16.78;63.33;99783.81;10421277;28;20791;-79
